Saturday, April 30, 2016
11:19 UTC
  |  Log In   |  Register Free
Airport Search:

Corpus Christi International Airport
(KCRP)

FAA data valid effective Mar 31 2016 - May 26 2016 (unless otherwise noted).

 
 
 
 
 
 
 
 
 
 
 
 
 
 
Current Aviation Weather for KCRP

Weather Summary


The most recent METAR observation for CRP was updated at: 12:51 UTC
METAR for KCRP is not available. Closest METAR is for KRBO
KCRP  (most recent observation was updatred at 30:10 UTC)
301051Z 16009KT 6SM BR BKN009 BKN016 OVC029 26/24 A2959 RMK AO2 SLP018 T02610239 $

KRBO  (10.1 nm SE)   (most recent observation was updated at 30:10 UTC)
301055Z AUTO 00000KT 4SM BR SCT006 SCT012 OVC026 26/25 A2960 RMK AO2 T02560247

KNGP  (12.1 nm NW)   (most recent observation was updated at 30:10 UTC)
301056Z AUTO 17008KT 6SM BR OVC008 26/26 A2959 RMK AO2 CIG007V012 SLP019 T02610256

TAF for KCRP is not available.
KCRP
AMD 300948Z 3010/0106 16012KT 6SM BR SCT015 OVC030 TEMPO 3010/3014 SCT009 OVC015 FM301400 15007KT P6SM VCSH BKN012 OVC040 FM301800 13008KT P6SM VCTS BKN025CB FM302100 11012KT P6SM SCT035 FM010300 11008KT P6SM BKN015

KNGP  (12.1 nm NW)   (most recent observation was updatred at UTC)
3007/0107 17012KT 8000 BR OVC008 542709 543606 QNH2950INS BECMG 3011/3013 16008KT 9000 BR SCT008 BKN015 OVC030 542709 543606 QNH2955INS BECMG 3018/3020 13012KT 9000 BR VCTS BKN010 OVC030CB 542709 543606 QNH2963INS TEMPO 3018/0100 VRB20G35KT 3200 TSRA BKN025CB OVC040 BECMG 0102/0104 VRB05KT 8000 BR BKN008 OVC015 542709 543606 QNH2979INS AUTOMATED SENSOR METWATCH 3007 TIL 0211 T25/3011Z T29/3020Z FN00143


KNQI  (22.8 nm NE)   (most recent observation was updatred at UTC)
3007/0107 15008KT 8000 BR FEW008 BKN015 OVC250 542709 543606 QNH2950INS FM301000 15005KT 6000 BR SCT008 BKN012 BKN025 OVC250 542709 543606 QNH2955INS TEMPO 3010/3014 VRB04KT 3200 BR OVC006 FM301400 VRB05KT 9999 VCSH FEW008 BKN015 BKN030 BKN250 542709 543606 QNH2960INS FM301800 13007KT 9999 VCTS SCT025CB SCT050 BKN250 542709 543606 QNH2963INS TEMPO 3018/0100 VRB20G35KT 3200 TSRA BKN025CB OVC040 FM010300 VRB05KT 8000 BR BKN008 OVC015 542709 543606 QNH2979INS AUTOMATED SENSOR METWATCH 3007 TIL 0120 T24/3012Z T33/3020Z FN00143
GlobalAir.com is loading additional information.
 Current Weather at CRP
78.0 F° (25.6 C°)

South winds at 11.5 mph
Pressure:
29.58 in
Humidity:
90%
Wind:
South at 11.5 mph
Dew Point:
75.0 F° (23.9 C°)
Visibility:
6.00 mi
CRP NOAA Radar




Find All Airport Services Find A Hotel Find A Rental Car Find A Golf Course Find A Restaurant $100 Hamburger



Airport Weather Forecast for KCRP

Translated METAR for KCRP (1051 UTC)
METAR:
KCRP 301051Z 16009KT 6SM BR BKN009 BKN016 OVC029 26/24 A2959 RMK AO2 SLP018 T02610239 $
Conditions at:
KCRP (Corpus Christi Intl, TX) observed 1051 UTC 30 April 2016
Temperature:
26°C (78.8°F)
Dewpoint:
24°C (75.2°F) [RH = 88.8]
Pressure:
29.59 inches Hg (1002 mb)
pressure at sea level is 18 in Hg
Winds:
from the SSE (160 degrees) at 10.4 mph (9 knots: 4.6 m/s)
Visibility:
6 mile(s)
Ceiling:
900 feet AGL
Clouds:
Broken Cloud Cover at 900 feet AGL
Broken Cloud Cover at 1,600 feet AGL
Overcast Skies at 2,900 feet AGL
Remarks:
SOME DATA ABOVE MAY BE INACCURATE!!!
"$" is an indication the sensor requires maintenance
site is automated and HAS a precipitation sensor

FBO's on the Field
FBO Company Facility Photos Services Transportation Aviation Fuel Prices: Prices include tax
Catering Weather Repair Courtesy Rental Type 100LL JetA JetA+ MOGAS 8087
 
Atlantic Aviation

This FBO has not yet been rated
FS:Independent
Last Updated: Apr-29
Login to update fuel prices
SS:
Contact Atlantic AviationMore FBO Information
 
Signature Flight Support

This FBO has not yet been rated
FS:Avfuel
Last Updated: Apr-29
Login to update fuel prices
SS:
Contact Signature Flight SupportMore FBO Information
 
Add another FBO Facility Photos Catering Weather Repair Courtesy Rental Type 100LL JetA JetA+ MOGAS 8087
Services Transportation Aviation Fuel Prices: Prices include tax


model-print
model-print
model-print
model-print